Time;durP1;ratioP1;P1;durP2;ratioP2;P2;SDS_P1;SDS_P2;PMS_P1;PMS_P2;Temp;Humidity;BMP_temperature;BMP_pressure;BME280_temperature;BME280_humidity;BME280_pressure;Samples;Min_cycle;Max_cycle;Signal;HPM_P1;HPM_P2
2022/10/04 00:00:44;;;;;;;15.77;9.45;;;10.20;91.10;;;;;;4992030;28;20038;-48
2022/10/04 00:03:36;;;;;;;13.85;8.15;;;10.30;91.10;;;;;;4991968;28;20057;-47
2022/10/04 00:06:04;;;;;;;12.65;7.68;;;10.30;90.90;;;;;;4998969;28;20488;-47
2022/10/04 00:08:37;;;;;;;13.32;7.95;;;10.40;90.90;;;;;;4991658;28;20058;-47
2022/10/04 00:11:14;;;;;;;15.15;8.32;;;10.40;90.80;;;;;;4991737;28;20034;-48
2022/10/04 00:13:41;;;;;;;15.93;8.88;;;10.40;90.70;;;;;;4991668;28;20390;-48
2022/10/04 00:16:12;;;;;;;13.50;7.63;;;10.40;90.60;;;;;;4991579;28;20049;-38
2022/10/04 00:18:43;;;;;;;16.15;8.68;;;10.40;90.60;;;;;;4990744;28;20122;-39
2022/10/04 00:21:09;;;;;;;15.82;7.65;;;10.50;90.60;;;;;;4991360;28;20046;-40
2022/10/04 00:23:35;;;;;;;12.40;7.88;;;10.50;90.50;;;;;;4991556;28;20049;-38
2022/10/04 00:26:04;;;;;;;13.10;8.30;;;10.50;90.60;;;;;;4991443;28;20019;-38
2022/10/04 00:28:36;;;;;;;20.20;8.25;;;10.60;90.50;;;;;;4991407;28;20099;-38
2022/10/04 00:31:18;;;;;;;17.70;7.13;;;10.60;90.30;;;;;;4991273;28;20089;-39
2022/10/04 00:33:54;;;;;;;13.32;7.32;;;10.50;90.30;;;;;;4991856;28;20471;-38
2022/10/04 00:36:25;;;;;;;15.52;8.25;;;10.40;90.30;;;;;;4991565;28;20037;-39
2022/10/04 00:39:09;;;;;;;19.80;8.35;;;10.40;90.40;;;;;;4991138;28;20479;-39
2022/10/04 00:41:48;;;;;;;14.85;7.70;;;10.40;90.60;;;;;;4991353;28;20400;-41
2022/10/04 00:44:27;;;;;;;13.75;7.28;;;10.40;90.60;;;;;;4991391;28;20075;-38
2022/10/04 00:46:55;;;;;;;12.38;6.82;;;10.40;90.60;;;;;;4991429;28;20030;-38
2022/10/04 00:49:25;;;;;;;10.55;7.38;;;10.40;90.60;;;;;;4991872;28;20042;-38
2022/10/04 00:51:59;;;;;;;15.60;8.38;;;10.40;90.60;;;;;;4991193;28;20042;-38
2022/10/04 00:54:33;;;;;;;15.82;7.22;;;10.30;90.70;;;;;;4991210;28;20023;-38
2022/10/04 00:57:06;;;;;;;23.23;10.13;;;10.30;90.70;;;;;;4990941;28;20080;-38
2022/10/04 00:59:41;;;;;;;17.05;7.55;;;10.40;90.80;;;;;;4991286;28;20064;-38
2022/10/04 01:02:15;;;;;;;14.55;6.88;;;10.40;90.80;;;;;;4990830;28;20105;-38
2022/10/04 01:04:43;;;;;;;12.70;7.95;;;10.40;90.80;;;;;;4990917;28;20022;-39
2022/10/04 01:07:12;;;;;;;11.32;6.40;;;10.40;90.80;;;;;;4990851;28;20023;-38
2022/10/04 01:09:51;;;;;;;10.73;7.28;;;10.40;90.80;;;;;;4991088;28;20482;-37
2022/10/04 01:12:53;;;;;;;18.75;8.43;;;10.40;90.80;;;;;;4991020;28;20083;-40
2022/10/04 01:15:27;;;;;;;15.63;7.03;;;10.40;90.80;;;;;;4990666;28;20547;-41
2022/10/04 01:18:28;;;;;;;12.70;6.53;;;10.30;90.80;;;;;;4990764;28;20046;-39
2022/10/04 01:21:26;;;;;;;15.25;7.88;;;10.30;90.80;;;;;;4990444;28;20048;-38
2022/10/04 01:24:14;;;;;;;16.70;7.47;;;10.30;90.90;;;;;;5023312;28;20035;-38
2022/10/04 01:26:42;;;;;;;12.70;6.82;;;10.40;90.90;;;;;;4989357;28;20041;-38
2022/10/04 01:29:17;;;;;;;10.70;5.68;;;10.30;90.90;;;;;;4990751;28;20026;-38
2022/10/04 01:31:48;;;;;;;14.35;7.88;;;10.30;90.90;;;;;;4990626;28;20105;-40
2022/10/04 01:34:25;;;;;;;14.35;7.07;;;10.30;91.00;;;;;;4990826;28;20027;-38
2022/10/04 01:36:59;;;;;;;14.23;7.38;;;10.40;90.80;;;;;;4990587;28;20163;-38
2022/10/04 01:39:27;;;;;;;10.40;6.25;;;10.40;90.80;;;;;;4990603;28;20034;-38
2022/10/04 01:42:09;;;;;;;12.70;5.80;;;10.40;90.80;;;;;;4991140;28;20026;-38
2022/10/04 01:44:43;;;;;;;8.43;5.20;;;10.50;90.50;;;;;;4993875;28;20114;-38
2022/10/04 01:47:13;;;;;;;12.82;5.20;;;10.40;90.50;;;;;;4994395;28;20489;-40
2022/10/04 01:49:40;;;;;;;;;;;10.40;90.30;;;;;;4994798;28;20030;-38
2022/10/04 01:52:13;;;;;;;12.73;4.97;;;10.40;90.20;;;;;;4994013;28;19971;-38
2022/10/04 01:54:43;;;;;;;14.70;5.53;;;10.50;90.00;;;;;;4992241;28;20111;-39
2022/10/04 01:57:17;;;;;;;9.55;5.40;;;10.50;89.70;;;;;;4993684;28;20034;-40
2022/10/04 02:00:08;;;;;;;11.98;6.03;;;10.50;89.70;;;;;;4994336;28;20062;-39
2022/10/04 02:02:57;;;;;;;;;;;10.50;89.70;;;;;;4994055;28;20088;-39
2022/10/04 02:05:48;;;;;;;11.60;5.65;;;10.50;89.80;;;;;;4993612;28;19906;-38
2022/10/04 02:08:17;;;;;;;13.98;6.82;;;10.50;89.60;;;;;;4993724;28;20490;-38
2022/10/04 02:10:44;;;;;;;13.65;6.13;;;10.40;89.50;;;;;;4993688;28;20428;-40
2022/10/04 02:13:16;;;;;;;8.27;5.18;;;10.40;89.60;;;;;;4993312;28;20030;-38
2022/10/04 02:15:43;;;;;;;10.60;6.05;;;10.40;89.50;;;;;;4993335;28;20048;-39
2022/10/04 02:18:14;;;;;;;14.25;7.47;;;10.50;89.50;;;;;;4993024;28;20026;-40
2022/10/04 02:20:41;;;;;;;12.43;5.93;;;10.50;89.10;;;;;;4992954;28;20096;-38
2022/10/04 02:23:09;;;;;;;17.90;6.38;;;10.40;89.20;;;;;;4993039;28;20098;-38
2022/10/04 02:25:36;;;;;;;15.52;6.60;;;10.30;89.30;;;;;;4993284;28;20057;-38
2022/10/04 02:28:02;;;;;;;14.35;6.35;;;10.30;89.60;;;;;;4993389;28;20026;-38
2022/10/04 02:30:34;;;;;;;13.65;5.93;;;10.20;89.70;;;;;;4992912;28;20041;-38
2022/10/04 02:33:00;;;;;;;11.52;6.72;;;10.10;89.90;;;;;;4993769;28;20031;-38
2022/10/04 02:35:46;;;;;;;14.88;6.18;;;10.10;90.10;;;;;;4993011;28;20030;-38
2022/10/04 02:38:16;;;;;;;12.48;6.20;;;10.10;90.30;;;;;;4992825;28;20026;-38
2022/10/04 02:40:49;;;;;;;9.73;6.10;;;10.20;90.50;;;;;;4993019;28;20060;-38
2022/10/04 02:43:23;;;;;;;10.40;6.18;;;10.20;90.40;;;;;;4992900;28;20071;-38
2022/10/04 02:46:06;;;;;;;14.10;5.88;;;10.20;90.40;;;;;;4992853;28;20060;-38
2022/10/04 02:48:44;;;;;;;10.52;6.80;;;10.10;90.40;;;;;;4993264;28;20030;-38
2022/10/04 02:51:24;;;;;;;15.77;6.15;;;10.10;90.40;;;;;;4993234;28;20027;-38
2022/10/04 02:54:09;;;;;;;;;;;10.10;90.40;;;;;;4993098;28;20030;-38
2022/10/04 02:56:36;;;;;;;12.50;6.18;;;10.20;90.50;;;;;;4992977;28;19913;-39
2022/10/04 02:59:05;;;;;;;12.48;6.20;;;10.30;90.40;;;;;;4992613;28;20523;-38
2022/10/04 03:01:43;;;;;;;14.40;6.95;;;10.30;90.00;;;;;;4992504;28;20136;-38
2022/10/04 03:04:13;;;;;;;12.90;5.80;;;10.30;90.00;;;;;;4992757;28;20030;-38
2022/10/04 03:06:40;;;;;;;;;;;10.30;90.00;;;;;;4993271;28;20105;-38
2022/10/04 03:09:06;;;;;;;9.30;5.85;;;10.30;90.00;;;;;;4992484;28;19906;-39
2022/10/04 03:11:39;;;;;;;13.75;6.40;;;10.30;90.00;;;;;;4992552;28;20027;-38
2022/10/04 03:14:19;;;;;;;9.10;5.65;;;10.30;89.90;;;;;;4993069;28;20022;-38
2022/10/04 03:16:47;;;;;;;10.38;6.15;;;10.20;89.90;;;;;;4992614;28;20033;-38
2022/10/04 03:19:15;;;;;;;12.10;7.07;;;10.20;90.10;;;;;;4992480;28;20048;-38
2022/10/04 03:21:43;;;;;;;15.00;6.85;;;10.20;90.20;;;;;;4992300;28;20050;-38
2022/10/04 03:24:17;;;;;;;8.85;5.15;;;10.10;90.20;;;;;;4992426;28;20019;-38
2022/10/04 03:26:51;;;;;;;12.35;6.03;;;10.00;90.30;;;;;;4992736;28;20019;-38
2022/10/04 03:29:18;;;;;;;14.13;7.00;;;10.00;90.30;;;;;;4992619;28;20018;-38
2022/10/04 03:31:46;;;;;;;16.90;6.20;;;10.00;90.50;;;;;;4992788;28;20105;-40
2022/10/04 03:34:15;;;;;;;8.38;5.80;;;9.90;90.40;;;;;;4992668;28;20038;-38
2022/10/04 03:36:41;;;;;;;11.75;5.97;;;9.90;90.50;;;;;;4992370;28;20469;-40
2022/10/04 03:39:10;;;;;;;12.48;6.13;;;9.80;90.60;;;;;;4992196;28;20026;-40
2022/10/04 03:41:40;;;;;;;19.00;6.18;;;9.80;90.60;;;;;;4990906;28;20580;-39
2022/10/04 03:44:15;;;;;;;13.10;6.40;;;9.70;90.80;;;;;;4992339;28;20425;-38
2022/10/04 03:46:42;;;;;;;16.45;6.32;;;9.80;90.70;;;;;;4990884;28;20331;-38
2022/10/04 03:49:13;;;;;;;12.35;6.13;;;9.60;90.70;;;;;;4992472;28;20029;-38
2022/10/04 03:51:45;;;;;;;10.77;6.70;;;9.60;90.80;;;;;;4992415;28;20030;-39
2022/10/04 03:54:17;;;;;;;17.20;6.85;;;9.60;91.00;;;;;;4992341;28;20033;-38
2022/10/04 03:56:44;;;;;;;16.17;7.05;;;9.50;91.00;;;;;;4992497;28;20032;-38
2022/10/04 03:59:15;;;;;;;13.15;7.25;;;9.50;91.10;;;;;;4992266;28;20477;-38
2022/10/04 04:02:01;;;;;;;12.63;5.95;;;9.40;91.30;;;;;;4992357;28;20038;-38
2022/10/04 04:04:49;;;;;;;14.40;7.05;;;9.40;91.40;;;;;;4990859;28;20031;-39
2022/10/04 04:07:37;;;;;;;16.60;6.60;;;9.40;91.50;;;;;;4991827;28;20026;-38
2022/10/04 04:10:32;;;;;;;10.00;6.78;;;9.40;91.60;;;;;;4992056;28;20057;-38
2022/10/04 04:12:58;;;;;;;12.60;6.95;;;9.40;91.70;;;;;;4992158;28;20607;-38
2022/10/04 04:15:29;;;;;;;9.45;6.60;;;9.30;91.70;;;;;;4992082;28;20144;-38
2022/10/04 04:17:58;;;;;;;13.18;7.32;;;9.30;91.70;;;;;;4991992;28;20023;-38
2022/10/04 04:20:26;;;;;;;16.67;7.53;;;9.30;91.80;;;;;;4991526;28;20126;-38
2022/10/04 04:23:21;;;;;;;13.40;6.65;;;9.30;91.80;;;;;;4991710;28;20382;-38
2022/10/04 04:25:50;;;;;;;11.13;6.38;;;9.20;91.80;;;;;;4996425;28;20114;-38
2022/10/04 04:28:25;;;;;;;15.55;7.68;;;9.10;91.90;;;;;;4991435;28;20050;-38
2022/10/04 04:31:01;;;;;;;12.85;6.78;;;9.10;91.90;;;;;;4991472;28;20030;-39
2022/10/04 04:33:43;;;;;;;13.00;6.70;;;9.10;92.00;;;;;;4991532;28;20109;-38
2022/10/04 04:36:13;;;;;;;10.85;6.57;;;9.10;92.10;;;;;;4991705;28;20030;-38
2022/10/04 04:39:33;;;;;;;12.05;7.05;;;9.10;92.10;;;;;;4991741;28;20042;-39
2022/10/04 04:41:26;;;;;;;14.38;7.30;;;9.20;92.20;;;;;;4991075;28;20551;-38
2022/10/04 04:43:52;;;;;;;17.17;7.53;;;9.10;92.10;;;;;;4991458;28;20026;-38
2022/10/04 04:46:19;;;;;;;12.77;7.15;;;9.20;92.20;;;;;;4992123;28;20061;-38
2022/10/04 04:48:47;;;;;;;11.27;6.95;;;9.20;92.20;;;;;;4991438;28;20046;-38
2022/10/04 04:51:24;;;;;;;14.07;7.32;;;9.30;92.30;;;;;;4991062;28;20123;-39
2022/10/04 04:53:51;;;;;;;19.45;7.75;;;9.30;92.20;;;;;;4991082;28;20390;-38
2022/10/04 04:56:22;;;;;;;12.40;6.60;;;9.30;92.10;;;;;;4990566;28;20030;-38
2022/10/04 04:58:50;;;;;;;20.50;7.43;;;9.40;92.00;;;;;;4991332;28;20026;-40
2022/10/04 05:01:21;;;;;;;12.20;7.55;;;9.40;91.90;;;;;;4990989;28;20030;-38
2022/10/04 05:04:20;;;;;;;14.05;6.95;;;9.40;91.90;;;;;;4991421;28;20367;-39
2022/10/04 05:07:04;;;;;;;12.90;7.00;;;9.40;91.80;;;;;;5022572;28;20062;-39
2022/10/04 05:09:31;;;;;;;10.70;5.90;;;9.50;91.70;;;;;;4989779;28;20091;-38
2022/10/04 05:12:12;;;;;;;15.60;6.47;;;9.50;91.70;;;;;;4989402;28;20038;-38
2022/10/04 05:14:43;;;;;;;9.80;6.35;;;9.50;91.60;;;;;;4991004;28;20022;-38
2022/10/04 05:17:32;;;;;;;17.08;8.15;;;9.50;91.50;;;;;;4990995;28;20034;-38
2022/10/04 05:20:00;;;;;;;11.98;7.32;;;9.60;91.50;;;;;;4990600;28;20088;-40
2022/10/04 05:22:27;;;;;;;12.85;7.40;;;9.60;91.40;;;;;;4990870;28;20034;-38
2022/10/04 17:20:11;;;;;;;12.48;5.03;;;15.30;72.20;;;;;;5071018;28;20472;-39
2022/10/04 17:22:51;;;;;;;9.40;5.25;;;15.30;72.60;;;;;;5070124;28;20024;-38
2022/10/04 17:25:29;;;;;;;10.65;5.47;;;15.30;72.70;;;;;;5070592;28;20104;-39
2022/10/04 17:28:00;;;;;;;10.10;5.05;;;15.20;73.00;;;;;;5069799;28;20381;-39
2022/10/04 17:30:29;;;;;;;8.60;4.72;;;15.20;73.30;;;;;;5069398;28;20017;-39
2022/10/04 17:33:35;;;;;;;9.75;5.15;;;15.10;73.40;;;;;;5070032;28;20035;-39
2022/10/04 17:36:38;;;;;;;12.23;4.53;;;15.00;74.00;;;;;;5069907;28;20052;-38
2022/10/04 17:39:15;;;;;;;11.88;5.28;;;15.10;74.30;;;;;;5051252;28;20126;-38
2022/10/04 17:41:57;;;;;;;12.35;4.72;;;15.00;74.70;;;;;;5070720;28;20150;-39
2022/10/04 17:44:33;;;;;;;10.55;4.22;;;15.00;75.00;;;;;;5058706;28;20099;-39
2022/10/04 17:47:22;;;;;;;12.65;4.90;;;14.80;75.10;;;;;;5071502;28;20380;-40
2022/10/04 17:55:51;;;;;;;10.88;5.28;;;14.50;76.90;;;;;;5069229;28;19916;-40
2022/10/04 17:58:38;;;;;;;9.75;5.20;;;14.50;77.00;;;;;;5069454;28;20035;-45
2022/10/04 18:01:07;;;;;;;12.98;5.15;;;14.50;77.20;;;;;;5069786;28;20024;-38
2022/10/04 18:04:06;;;;;;;9.25;5.10;;;14.50;77.50;;;;;;5069373;28;20414;-39
2022/10/04 18:06:45;;;;;;;5.45;3.83;;;14.40;77.80;;;;;;5069806;28;20022;-39
2022/10/04 18:09:21;;;;;;;10.35;5.28;;;14.30;77.90;;;;;;5069453;28;20457;-39
2022/10/04 18:11:58;;;;;;;9.40;6.05;;;14.30;78.40;;;;;;5069934;28;20032;-38
2022/10/04 18:14:55;;;;;;;15.65;6.22;;;14.20;78.70;;;;;;5068738;28;20036;-40
2022/10/04 18:17:41;;;;;;;9.13;5.13;;;14.20;79.00;;;;;;5068613;28;20063;-39
2022/10/04 18:20:09;;;;;;;11.95;5.55;;;14.10;79.50;;;;;;5069301;28;20033;-38
2022/10/04 18:22:50;;;;;;;10.40;5.78;;;14.00;79.80;;;;;;5068731;28;20029;-39
2022/10/04 18:25:25;;;;;;;11.73;5.68;;;14.00;79.80;;;;;;5067302;28;20021;-39
2022/10/04 18:28:05;;;;;;;15.15;5.82;;;14.00;80.00;;;;;;5068882;28;20029;-38
2022/10/04 18:30:32;;;;;;;14.02;5.65;;;13.90;80.30;;;;;;5060058;28;20077;-39
2022/10/04 18:32:59;;;;;;;13.60;6.78;;;13.90;80.50;;;;;;5053966;28;20501;-39
2022/10/04 18:35:30;;;;;;;10.27;6.40;;;13.90;80.80;;;;;;5055089;28;20040;-39
2022/10/04 18:38:03;;;;;;;14.93;6.70;;;13.80;80.90;;;;;;5055404;28;20032;-38
2022/10/04 18:40:41;;;;;;;15.57;8.85;;;13.80;81.20;;;;;;5055198;28;20021;-40
2022/10/04 18:43:28;;;;;;;11.20;5.60;;;13.80;81.50;;;;;;5054122;28;20024;-40
2022/10/04 18:46:04;;;;;;;9.07;5.15;;;13.70;81.60;;;;;;5054517;28;20021;-40
2022/10/04 18:49:23;;;;;;;11.07;6.55;;;13.60;81.80;;;;;;5055222;28;20040;-40
2022/10/04 18:52:11;;;;;;;7.78;6.15;;;13.60;82.10;;;;;;5037009;28;20409;-39
2022/10/04 18:54:51;;;;;;;12.07;6.25;;;13.60;82.20;;;;;;5056365;28;20041;-40
2022/10/04 18:57:32;;;;;;;;;;;13.50;82.40;;;;;;5055768;28;20358;-39
2022/10/04 19:03:21;;;;;;;16.30;6.75;;;13.50;82.70;;;;;;5055090;28;20372;-39
2022/10/04 19:05:52;;;;;;;12.80;6.40;;;13.50;82.80;;;;;;5055153;28;20108;-39
2022/10/04 19:08:37;;;;;;;15.57;6.93;;;13.70;82.30;;;;;;5054825;28;20052;-39
2022/10/04 19:11:24;;;;;;;8.27;6.05;;;13.80;81.30;;;;;;5056497;28;20032;-39
2022/10/04 19:14:23;;;;;;;10.60;6.50;;;14.00;80.80;;;;;;5057454;28;20396;-40
2022/10/04 19:17:02;;;;;;;17.88;9.93;;;14.10;80.20;;;;;;5056717;28;20031;-39
2022/10/04 19:19:30;;;;;;;11.02;8.50;;;14.00;80.60;;;;;;5054997;28;20049;-39
2022/10/04 19:22:20;;;;;;;14.48;8.63;;;13.80;80.90;;;;;;5054645;28;20033;-39
2022/10/04 19:25:10;;;;;;;17.48;7.85;;;13.70;81.40;;;;;;5053122;28;20032;-38
2022/10/04 19:28:12;;;;;;;29.98;12.77;;;13.60;81.90;;;;;;5054810;28;20021;-40
2022/10/04 19:31:00;;;;;;;28.15;14.30;;;13.50;82.40;;;;;;5054229;28;20029;-38
2022/10/04 19:33:48;;;;;;;34.55;14.75;;;13.30;82.90;;;;;;5056374;28;20017;-38
2022/10/04 19:36:46;;;;;;;19.75;9.10;;;13.30;83.40;;;;;;5054326;28;20021;-40
2022/10/04 19:39:37;;;;;;;19.67;7.75;;;13.20;83.70;;;;;;5053475;28;20407;-39
2022/10/04 19:42:11;;;;;;;19.58;8.02;;;13.10;84.10;;;;;;5054050;28;20061;-40
2022/10/04 19:45:05;;;;;;;10.90;7.47;;;13.00;84.40;;;;;;5052974;28;20108;-41
2022/10/04 19:47:49;;;;;;;14.25;6.75;;;13.00;84.80;;;;;;5054293;28;20044;-39
2022/10/04 19:50:23;;;;;;;18.20;7.88;;;12.90;85.10;;;;;;5054262;28;20021;-39
2022/10/04 19:52:52;;;;;;;21.85;10.98;;;12.80;85.20;;;;;;5052705;28;20025;-39
2022/10/04 19:55:45;;;;;;;17.55;7.72;;;12.80;85.30;;;;;;5052778;28;20032;-40
2022/10/04 19:58:29;;;;;;;12.65;7.85;;;12.80;85.40;;;;;;5054022;28;20025;-40
2022/10/04 20:00:55;;;;;;;13.20;7.38;;;12.80;85.70;;;;;;5054137;28;20024;-38
2022/10/04 20:03:20;;;;;;;13.73;6.35;;;12.90;85.70;;;;;;5053984;28;20426;-38
2022/10/04 20:05:49;;;;;;;16.90;6.80;;;12.90;85.50;;;;;;5054093;28;20032;-40
2022/10/04 20:08:36;;;;;;;15.68;8.75;;;13.00;85.50;;;;;;5054071;28;20025;-39
2022/10/04 20:11:27;;;;;;;15.30;7.75;;;13.00;85.10;;;;;;5056566;28;20029;-40
2022/10/04 20:14:08;;;;;;;18.00;7.18;;;12.90;85.20;;;;;;5054107;28;20033;-40
2022/10/04 20:16:45;;;;;;;12.57;7.18;;;12.80;85.60;;;;;;5054017;28;20111;-39
2022/10/04 20:19:21;;;;;;;16.23;7.00;;;12.80;85.80;;;;;;5053458;28;20053;-39
2022/10/04 20:21:47;;;;;;;20.75;10.82;;;12.80;86.00;;;;;;5052264;28;20431;-38
2022/10/04 20:24:40;;;;;;;19.58;8.50;;;12.80;86.10;;;;;;5053734;28;20021;-39
2022/10/04 20:27:07;;;;;;;21.83;10.13;;;12.60;86.30;;;;;;5053562;28;20021;-39
2022/10/04 20:29:36;;;;;;;18.17;10.55;;;12.50;86.50;;;;;;5052033;28;20484;-38
2022/10/04 20:32:35;;;;;;;26.27;12.65;;;12.40;86.70;;;;;;5053839;28;20025;-38
2022/10/04 20:35:04;;;;;;;32.65;15.68;;;12.40;86.90;;;;;;5052226;28;20112;-39
2022/10/04 20:37:55;;;;;;;49.10;20.88;;;12.30;87.20;;;;;;5052457;28;20032;-39
2022/10/04 20:40:20;;;;;;;;;;;12.30;87.30;;;;;;5053856;28;20029;-39
2022/10/04 20:43:12;;;;;;;67.95;25.88;;;12.30;87.40;;;;;;5053931;28;19909;-43
2022/10/04 20:45:45;;;;;;;59.83;20.90;;;12.30;87.60;;;;;;5053060;28;20036;-39
2022/10/04 20:48:28;;;;;;;43.95;19.55;;;12.20;87.70;;;;;;5055135;28;20024;-39
2022/10/04 20:50:54;;;;;;;33.80;15.10;;;12.10;87.80;;;;;;5053138;28;20072;-38
2022/10/04 20:53:29;;;;;;;31.73;16.00;;;12.10;87.90;;;;;;5051271;28;20027;-41
2022/10/04 20:56:13;;;;;;;30.00;15.52;;;12.10;88.00;;;;;;5052999;28;20401;-39
2022/10/04 20:58:40;;;;;;;27.33;13.45;;;12.10;88.20;;;;;;5053041;28;20051;-39
2022/10/04 21:01:54;;;;;;;31.05;15.93;;;12.00;88.20;;;;;;5052851;28;20017;-39
2022/10/04 21:04:29;;;;;;;34.03;17.73;;;12.00;88.30;;;;;;5051844;28;20484;-38
2022/10/04 21:06:57;;;;;;;22.90;13.52;;;11.90;88.40;;;;;;5052071;28;20025;-39
2022/10/04 21:09:24;;;;;;;26.45;10.95;;;11.90;88.40;;;;;;5052919;28;20033;-40
2022/10/04 21:11:51;;;;;;;25.70;13.05;;;11.90;88.50;;;;;;5052861;28;20037;-39
2022/10/04 21:14:28;;;;;;;22.88;10.88;;;11.90;88.50;;;;;;5053738;28;20025;-40
2022/10/04 21:17:04;;;;;;;17.48;9.93;;;11.90;88.70;;;;;;5052896;28;20060;-39
2022/10/04 21:19:34;;;;;;;19.08;9.60;;;12.00;88.80;;;;;;5052722;28;20084;-39
2022/10/04 21:22:04;;;;;;;11.65;8.02;;;12.10;88.70;;;;;;5052889;28;20037;-39
2022/10/04 21:24:53;;;;;;;15.63;8.93;;;12.10;88.60;;;;;;5053334;28;20123;-39
2022/10/04 21:27:33;;;;;;;14.18;8.55;;;12.20;88.60;;;;;;5036993;28;20499;-40
2022/10/04 21:30:00;;;;;;;16.05;8.05;;;12.30;88.40;;;;;;5052836;28;20025;-40
2022/10/04 21:32:31;;;;;;;15.30;7.57;;;12.50;87.40;;;;;;5052852;28;20024;-39
2022/10/04 21:34:56;;;;;;;10.35;6.82;;;12.50;87.50;;;;;;5053213;28;20055;-40
2022/10/04 21:37:22;;;;;;;11.70;7.13;;;12.60;87.10;;;;;;5052610;28;20029;-40
2022/10/04 21:39:49;;;;;;;14.38;7.47;;;12.50;87.10;;;;;;5052487;28;20104;-41
2022/10/04 21:42:15;;;;;;;17.33;6.75;;;12.60;87.20;;;;;;5052724;28;20052;-39
2022/10/04 21:44:41;;;;;;;11.18;6.20;;;12.50;87.10;;;;;;5034850;28;20025;-38
2022/10/04 21:47:07;;;;;;;17.50;8.10;;;12.50;87.40;;;;;;5052526;28;20036;-39
2022/10/04 21:49:33;;;;;;;19.52;7.78;;;12.50;87.40;;;;;;5052815;28;20424;-44
2022/10/04 21:51:59;;;;;;;11.77;6.63;;;12.50;87.50;;;;;;5053261;28;20029;-38
2022/10/04 21:54:24;;;;;;;10.25;6.65;;;12.40;87.40;;;;;;5052794;28;20040;-40
2022/10/04 21:56:53;;;;;;;10.63;6.15;;;12.40;87.70;;;;;;5052857;28;20029;-40
2022/10/04 21:59:20;;;;;;;12.90;7.22;;;12.30;87.80;;;;;;5052512;28;20032;-39
2022/10/04 22:01:46;;;;;;;12.13;7.10;;;12.40;87.80;;;;;;5051174;28;20051;-40
2022/10/04 22:04:11;;;;;;;10.00;6.55;;;12.40;87.70;;;;;;5052531;28;20025;-38
2022/10/04 22:06:37;;;;;;;14.52;6.68;;;12.40;87.80;;;;;;5056041;28;20017;-40
2022/10/04 22:09:03;;;;;;;12.35;7.18;;;12.40;87.80;;;;;;5056584;28;20116;-46
2022/10/04 22:11:29;;;;;;;12.05;6.88;;;12.40;87.90;;;;;;5056573;28;20132;-40
2022/10/04 22:13:54;;;;;;;12.88;7.15;;;12.40;87.80;;;;;;5056984;28;20025;-40
2022/10/04 22:16:20;;;;;;;13.93;6.75;;;12.40;87.70;;;;;;5056477;28;20071;-40
2022/10/04 22:18:46;;;;;;;11.65;7.65;;;12.40;87.70;;;;;;5056502;28;20041;-39
2022/10/04 22:21:11;;;;;;;15.63;7.95;;;12.30;87.90;;;;;;5056774;28;20508;-40
2022/10/04 22:23:42;;;;;;;12.45;6.05;;;12.30;88.00;;;;;;5056214;28;20167;-40
2022/10/04 22:26:14;;;;;;;13.35;6.93;;;12.40;87.90;;;;;;5055805;28;20074;-40
2022/10/04 22:28:51;;;;;;;16.17;7.63;;;12.40;87.90;;;;;;5056021;28;20492;-39
2022/10/04 22:31:19;;;;;;;15.23;6.70;;;12.30;87.90;;;;;;5056454;28;20029;-38
2022/10/04 22:33:47;;;;;;;19.48;7.63;;;12.40;88.00;;;;;;5056174;28;20092;-39
2022/10/04 22:36:28;;;;;;;11.93;7.15;;;12.40;87.80;;;;;;5056318;28;20381;-39
2022/10/04 22:39:20;;;;;;;12.35;7.30;;;12.40;87.60;;;;;;5056627;28;20369;-40
2022/10/04 22:41:55;;;;;;;12.43;7.95;;;12.40;87.90;;;;;;5056057;28;20136;-40
2022/10/04 22:44:27;;;;;;;10.98;7.22;;;12.50;87.50;;;;;;5056113;28;20032;-39
2022/10/04 22:46:56;;;;;;;15.63;7.30;;;12.50;87.40;;;;;;5056108;28;20393;-40
2022/10/04 22:49:25;;;;;;;11.30;6.53;;;12.50;87.30;;;;;;5055775;28;20025;-39
2022/10/04 22:51:53;;;;;;;11.35;6.85;;;12.40;87.40;;;;;;5055589;28;20040;-39
2022/10/04 22:54:21;;;;;;;15.48;8.10;;;12.40;87.70;;;;;;5054001;28;20420;-39
2022/10/04 22:56:47;;;;;;;13.20;7.18;;;12.40;87.70;;;;;;5055210;28;20070;-40
2022/10/04 22:59:15;;;;;;;15.10;7.35;;;12.40;87.60;;;;;;5054447;28;20029;-39
2022/10/04 23:01:42;;;;;;;13.98;7.55;;;12.40;87.80;;;;;;5055121;28;20108;-40
2022/10/04 23:04:26;;;;;;;15.45;7.28;;;12.50;87.80;;;;;;5055284;28;20376;-38
2022/10/04 23:06:52;;;;;;;18.65;8.25;;;12.40;87.50;;;;;;5055112;28;20416;-40
2022/10/04 23:09:19;;;;;;;11.38;7.53;;;12.50;87.60;;;;;;5055018;28;20115;-38
2022/10/04 23:11:45;;;;;;;15.25;7.97;;;12.40;87.50;;;;;;5054947;28;20052;-38
2022/10/04 23:14:11;;;;;;;12.82;7.32;;;12.40;87.80;;;;;;5055153;28;20090;-39
2022/10/04 23:16:37;;;;;;;11.93;7.97;;;12.40;87.40;;;;;;5055304;28;20029;-40
2022/10/04 23:19:17;;;;;;;16.80;8.40;;;12.40;87.60;;;;;;5054527;28;20045;-38
2022/10/04 23:21:45;;;;;;;12.52;7.68;;;12.40;87.50;;;;;;5055046;28;20032;-38
2022/10/04 23:24:16;;;;;;;16.27;8.07;;;12.40;87.50;;;;;;5054592;28;20031;-39
2022/10/04 23:26:45;;;;;;;16.92;7.85;;;12.40;87.50;;;;;;5054588;28;20025;-39
2022/10/04 23:29:16;;;;;;;13.93;7.50;;;12.40;87.30;;;;;;5054632;28;20025;-38
2022/10/04 23:31:42;;;;;;;11.07;6.78;;;12.30;87.40;;;;;;5054861;28;20388;-39
2022/10/04 23:34:22;;;;;;;12.32;7.45;;;12.30;87.50;;;;;;5054826;28;20033;-38
2022/10/04 23:36:48;;;;;;;14.55;7.93;;;12.30;87.70;;;;;;5054604;28;20021;-38
2022/10/04 23:39:25;;;;;;;10.18;7.03;;;12.30;87.80;;;;;;5054648;28;20388;-39
2022/10/04 23:41:53;;;;;;;23.90;9.48;;;12.20;87.70;;;;;;5054803;28;20325;-40
2022/10/04 23:44:20;;;;;;;17.55;7.78;;;12.10;87.90;;;;;;5054561;28;20022;-39
2022/10/04 23:46:46;;;;;;;14.25;7.60;;;12.10;88.30;;;;;;5053036;28;20048;-38
2022/10/04 23:49:16;;;;;;;19.15;8.10;;;12.10;88.40;;;;;;5052900;28;20021;-37
2022/10/04 23:51:43;;;;;;;13.85;7.43;;;12.00;88.30;;;;;;5054072;28;20021;-39
2022/10/04 23:54:14;;;;;;;13.38;7.53;;;12.10;88.30;;;;;;5054101;28;20055;-39
2022/10/04 23:56:41;;;;;;;10.38;6.82;;;12.00;88.40;;;;;;5054588;28;20033;-40
2022/10/04 23:59:16;;;;;;;13.43;8.10;;;12.00;88.40;;;;;;5054352;28;20028;-40
